sensor_id;sensor_type;location;lat;lon;timestamp;pressure;altitude;pressure_sealevel;temperature;humidity
53647;BME280;39550;52.230;5.194;2022-10-31T00:00:17;101936.78;;;14.49;83.15
53647;BME280;39550;52.230;5.194;2022-10-31T00:02:42;101934.19;;;14.49;82.58
53647;BME280;39550;52.230;5.194;2022-10-31T00:05:08;101944.56;;;14.52;82.24
53647;BME280;39550;52.230;5.194;2022-10-31T00:07:33;101946.31;;;14.50;82.80
53647;BME280;39550;52.230;5.194;2022-10-31T00:09:58;101942.84;;;14.50;82.71
53647;BME280;39550;52.230;5.194;2022-10-31T00:12:24;101942.84;;;14.50;82.16
53647;BME280;39550;52.230;5.194;2022-10-31T00:14:49;101944.53;;;14.46;82.88
53647;BME280;39550;52.230;5.194;2022-10-31T00:17:14;101946.28;;;14.45;81.81
53647;BME280;39550;52.230;5.194;2022-10-31T00:19:40;101946.22;;;14.44;83.18
53647;BME280;39550;52.230;5.194;2022-10-31T00:22:05;101944.50;;;14.43;83.07
53647;BME280;39550;52.230;5.194;2022-10-31T00:24:30;101947.94;;;14.42;82.31
53647;BME280;39550;52.230;5.194;2022-10-31T00:26:56;101947.09;;;14.41;82.60
53647;BME280;39550;52.230;5.194;2022-10-31T00:29:21;101949.66;;;14.40;81.99
53647;BME280;39550;52.230;5.194;2022-10-31T00:31:46;101952.25;;;14.40;81.91
53647;BME280;39550;52.230;5.194;2022-10-31T00:34:11;101955.72;;;14.40;82.19
53647;BME280;39550;52.230;5.194;2022-10-31T00:36:37;101956.56;;;14.38;82.48
53647;BME280;39550;52.230;5.194;2022-10-31T00:39:02;101955.69;;;14.37;82.38
53647;BME280;39550;52.230;5.194;2022-10-31T00:41:28;101959.13;;;14.36;82.49
53647;BME280;39550;52.230;5.194;2022-10-31T00:43:54;101945.28;;;14.34;82.06
53647;BME280;39550;52.230;5.194;2022-10-31T00:46:20;101948.75;;;14.35;81.90
53647;BME280;39550;52.230;5.194;2022-10-31T00:48:45;101956.53;;;14.35;81.80
53647;BME280;39550;52.230;5.194;2022-10-31T00:51:10;101953.03;;;14.33;82.17
53647;BME280;39550;52.230;5.194;2022-10-31T00:53:35;101950.44;;;14.31;82.37
53647;BME280;39550;52.230;5.194;2022-10-31T00:56:01;101956.47;;;14.31;82.22
53647;BME280;39550;52.230;5.194;2022-10-31T00:58:27;101956.44;;;14.28;82.41
53647;BME280;39550;52.230;5.194;2022-10-31T01:00:52;101959.91;;;14.27;82.11
53647;BME280;39550;52.230;5.194;2022-10-31T01:03:26;101964.22;;;14.27;82.14
53647;BME280;39550;52.230;5.194;2022-10-31T01:08:22;101955.56;;;14.25;82.50
53647;BME280;39550;52.230;5.194;2022-10-31T01:10:58;101957.28;;;14.24;81.80
53647;BME280;39550;52.230;5.194;2022-10-31T01:13:23;101954.69;;;14.24;81.75
53647;BME280;39550;52.230;5.194;2022-10-31T01:15:54;101961.59;;;14.24;82.43
53647;BME280;39550;52.230;5.194;2022-10-31T01:18:19;101962.44;;;14.23;81.42
53647;BME280;39550;52.230;5.194;2022-10-31T01:20:44;101964.19;;;14.22;82.35
53647;BME280;39550;52.230;5.194;2022-10-31T01:23:09;101952.06;;;14.21;81.50
53647;BME280;39550;52.230;5.194;2022-10-31T01:25:35;101921.66;;;14.05;81.85
53647;BME280;39550;52.230;5.194;2022-10-31T01:28:01;101946.88;;;14.20;82.23
53647;BME280;39550;52.230;5.194;2022-10-31T01:30:26;101941.69;;;14.20;82.15
53647;BME280;39550;52.230;5.194;2022-10-31T01:32:52;101931.28;;;14.17;82.44
53647;BME280;39550;52.230;5.194;2022-10-31T01:35:17;101925.22;;;14.16;81.62
53647;BME280;39550;52.230;5.194;2022-10-31T01:37:42;101921.75;;;14.14;82.07
53647;BME280;39550;52.230;5.194;2022-10-31T01:40:08;101926.94;;;14.14;82.26
53647;BME280;39550;52.230;5.194;2022-10-31T01:42:33;101935.56;;;14.13;81.88
53647;BME280;39550;52.230;5.194;2022-10-31T01:45:01;101935.56;;;14.13;82.28
53647;BME280;39550;52.230;5.194;2022-10-31T01:47:55;101924.31;;;14.11;81.30
53647;BME280;39550;52.230;5.194;2022-10-31T01:50:31;101929.50;;;14.11;81.62
53647;BME280;39550;52.230;5.194;2022-10-31T01:52:57;101925.16;;;14.10;82.03
53647;BME280;39550;52.230;5.194;2022-10-31T01:55:35;101920.81;;;14.07;81.31
53647;BME280;39550;52.230;5.194;2022-10-31T01:58:12;101921.66;;;14.08;82.15
53647;BME280;39550;52.230;5.194;2022-10-31T02:00:39;101925.97;;;14.06;82.14
53647;BME280;39550;52.230;5.194;2022-10-31T02:03:06;101922.53;;;14.05;81.34
53647;BME280;39550;52.230;5.194;2022-10-31T02:05:32;101918.22;;;14.06;81.46
53647;BME280;39550;52.230;5.194;2022-10-31T02:08:20;101918.19;;;14.03;82.10
53647;BME280;39550;52.230;5.194;2022-10-31T02:10:47;101919.03;;;14.03;82.54
53647;BME280;39550;52.230;5.194;2022-10-31T02:13:12;101919.88;;;14.01;81.55
53647;BME280;39550;52.230;5.194;2022-10-31T02:15:39;101925.94;;;14.01;81.39
53647;BME280;39550;52.230;5.194;2022-10-31T02:18:07;101922.47;;;14.01;81.57
53647;BME280;39550;52.230;5.194;2022-10-31T02:20:40;101924.19;;;14.00;81.09
53647;BME280;39550;52.230;5.194;2022-10-31T02:31:46;101918.94;;;13.95;82.36
53647;BME280;39550;52.230;5.194;2022-10-31T02:34:25;101919.75;;;13.91;81.30
53647;BME280;39550;52.230;5.194;2022-10-31T02:37:01;101918.06;;;13.92;81.35
53647;BME280;39550;52.230;5.194;2022-10-31T02:39:38;101924.94;;;13.91;82.05
53647;BME280;39550;52.230;5.194;2022-10-31T02:42:13;101923.22;;;13.90;81.51
53647;BME280;39550;52.230;5.194;2022-10-31T02:44:58;101917.97;;;13.84;81.72
53647;BME280;39550;52.230;5.194;2022-10-31T02:47:27;101926.66;;;13.89;81.37
53647;BME280;39550;52.230;5.194;2022-10-31T02:50:08;101921.44;;;13.86;81.82
53647;BME280;39550;52.230;5.194;2022-10-31T02:52:36;101926.63;;;13.86;81.56
53647;BME280;39550;52.230;5.194;2022-10-31T02:57:48;101928.31;;;13.84;81.79
53647;BME280;39550;52.230;5.194;2022-10-31T03:00:14;101925.72;;;13.84;80.86
53647;BME280;39550;52.230;5.194;2022-10-31T03:02:45;101924.00;;;13.83;81.59
53647;BME280;39550;52.230;5.194;2022-10-31T03:05:28;101918.84;;;13.83;81.27
53647;BME280;39550;52.230;5.194;2022-10-31T03:10:47;101916.19;;;13.80;81.27
53647;BME280;39550;52.230;5.194;2022-10-31T03:13:41;101924.81;;;13.79;81.58
53647;BME280;39550;52.230;5.194;2022-10-31T03:16:14;101928.25;;;13.78;81.30
53647;BME280;39550;52.230;5.194;2022-10-31T03:18:50;101923.06;;;13.78;81.27
53647;BME280;39550;52.230;5.194;2022-10-31T03:23:53;101925.59;;;13.73;81.66
53647;BME280;39550;52.230;5.194;2022-10-31T03:26:21;101926.47;;;13.74;81.50
53647;BME280;39550;52.230;5.194;2022-10-31T03:29:02;101923.00;;;13.72;80.87
53647;BME280;39550;52.230;5.194;2022-10-31T03:31:29;101926.47;;;13.74;81.31
53647;BME280;39550;52.230;5.194;2022-10-31T03:33:58;101926.44;;;13.71;81.43
53647;BME280;39550;52.230;5.194;2022-10-31T03:36:26;101925.56;;;13.72;81.27
53647;BME280;39550;52.230;5.194;2022-10-31T03:38:55;101927.28;;;13.70;81.52
53647;BME280;39550;52.230;5.194;2022-10-31T03:41:25;101927.28;;;13.68;80.90
53647;BME280;39550;52.230;5.194;2022-10-31T03:44:01;101935.03;;;13.67;81.01
53647;BME280;39550;52.230;5.194;2022-10-31T03:46:29;101934.16;;;13.66;80.58
53647;BME280;39550;52.230;5.194;2022-10-31T03:48:54;101932.41;;;13.65;80.76
53647;BME280;39550;52.230;5.194;2022-10-31T03:51:29;101940.16;;;13.63;81.30
53647;BME280;39550;52.230;5.194;2022-10-31T03:54:28;101943.63;;;13.62;80.76
53647;BME280;39550;52.230;5.194;2022-10-31T03:57:23;101940.13;;;13.60;80.93
53647;BME280;39550;52.230;5.194;2022-10-31T03:59:55;101893.13;;;13.33;80.78
53647;BME280;39550;52.230;5.194;2022-10-31T04:02:30;101825.25;;;12.89;80.58
53647;BME280;39550;52.230;5.194;2022-10-31T04:04:58;101796.56;;;12.72;80.97
53647;BME280;39550;52.230;5.194;2022-10-31T04:07:28;101900.03;;;13.34;80.94
53647;BME280;39550;52.230;5.194;2022-10-31T04:09:56;101924.41;;;13.48;80.97
53647;BME280;39550;52.230;5.194;2022-10-31T04:12:23;101859.97;;;13.07;80.55
53647;BME280;39550;52.230;5.194;2022-10-31T04:14:49;101889.56;;;13.24;80.83
53647;BME280;39550;52.230;5.194;2022-10-31T04:17:18;101885.22;;;13.23;80.95
53647;BME280;39550;52.230;5.194;2022-10-31T04:19:44;101934.78;;;13.48;80.47
53647;BME280;39550;52.230;5.194;2022-10-31T04:22:09;101886.13;;;13.25;80.66
53647;BME280;39550;52.230;5.194;2022-10-31T04:24:37;101880.03;;;13.22;80.29
53647;BME280;39550;52.230;5.194;2022-10-31T04:27:04;101882.63;;;13.23;80.83
53647;BME280;39550;52.230;5.194;2022-10-31T04:29:29;101872.19;;;13.14;80.61
53647;BME280;39550;52.230;5.194;2022-10-31T04:31:57;101870.38;;;13.10;80.79
53647;BME280;39550;52.230;5.194;2022-10-31T04:34:25;101833.00;;;12.88;80.44
53647;BME280;39550;52.230;5.194;2022-10-31T04:36:50;101862.50;;;13.02;80.70
53647;BME280;39550;52.230;5.194;2022-10-31T04:39:15;101858.25;;;13.04;80.35
53647;BME280;39550;52.230;5.194;2022-10-31T04:41:41;101887.75;;;13.17;80.27
53647;BME280;39550;52.230;5.194;2022-10-31T04:44:06;101882.56;;;13.17;80.08
53647;BME280;39550;52.230;5.194;2022-10-31T04:46:31;101887.69;;;13.14;80.15
53647;BME280;39550;52.230;5.194;2022-10-31T04:49:00;101889.38;;;13.12;79.67
53647;BME280;39550;52.230;5.194;2022-10-31T04:51:25;101938.13;;;13.41;80.04
53647;BME280;39550;52.230;5.194;2022-10-31T04:53:50;101924.16;;;13.29;80.05
53647;BME280;39550;52.230;5.194;2022-10-31T04:56:16;101934.69;;;13.39;80.03
53647;BME280;39550;52.230;5.194;2022-10-31T04:58:41;101838.94;;;12.82;80.08
53647;BME280;39550;52.230;5.194;2022-10-31T05:01:07;101914.59;;;13.25;80.09
53647;BME280;39550;52.230;5.194;2022-10-31T05:03:32;101869.41;;;13.02;80.04
53647;BME280;39550;52.230;5.194;2022-10-31T05:05:57;101895.47;;;13.14;80.49
53647;BME280;39550;52.230;5.194;2022-10-31T05:08:23;101900.69;;;13.19;79.68
53647;BME280;39550;52.230;5.194;2022-10-31T05:10:48;101848.50;;;12.86;80.06
53647;BME280;39550;52.230;5.194;2022-10-31T05:13:13;101908.47;;;13.20;80.42
53647;BME280;39550;52.230;5.194;2022-10-31T05:15:42;101876.28;;;13.01;79.66
53647;BME280;39550;52.230;5.194;2022-10-31T05:18:08;101841.50;;;12.81;79.03
53647;BME280;39550;52.230;5.194;2022-10-31T05:20:33;101878.84;;;13.00;79.63
53647;BME280;39550;52.230;5.194;2022-10-31T05:22:59;101923.22;;;13.26;79.63
53647;BME280;39550;52.230;5.194;2022-10-31T05:25:27;101873.59;;;12.93;79.98
53647;BME280;39550;52.230;5.194;2022-10-31T05:27:53;101784.13;;;12.47;79.24
53647;BME280;39550;52.230;5.194;2022-10-31T05:30:25;101784.94;;;12.44;79.34
53647;BME280;39550;52.230;5.194;2022-10-31T05:32:51;101865.00;;;12.94;79.45
53647;BME280;39550;52.230;5.194;2022-10-31T05:35:23;101916.25;;;13.22;80.18
53647;BME280;39550;52.230;5.194;2022-10-31T05:37:48;101904.16;;;13.19;78.97
53647;BME280;39550;52.230;5.194;2022-10-31T05:40:15;101909.31;;;13.19;79.42
53647;BME280;39550;52.230;5.194;2022-10-31T05:42:42;101776.31;;;12.42;79.29
53647;BME280;39550;52.230;5.194;2022-10-31T05:45:10;101816.34;;;12.69;79.76
53647;BME280;39550;52.230;5.194;2022-10-31T05:47:35;101811.97;;;12.66;79.34
53647;BME280;39550;52.230;5.194;2022-10-31T05:50:01;101897.19;;;13.15;80.09
53647;BME280;39550;52.230;5.194;2022-10-31T05:52:26;101881.44;;;13.00;79.42
53647;BME280;39550;52.230;5.194;2022-10-31T05:54:51;101844.16;;;12.85;79.42
53647;BME280;39550;52.230;5.194;2022-10-31T05:57:17;101865.03;;;12.98;79.28
53647;BME280;39550;52.230;5.194;2022-10-31T05:59:42;101883.25;;;13.05;79.63
53647;BME280;39550;52.230;5.194;2022-10-31T06:02:10;101871.09;;;13.01;80.04
53647;BME280;39550;52.230;5.194;2022-10-31T06:04:36;101884.13;;;13.06;79.37
53647;BME280;39550;52.230;5.194;2022-10-31T06:07:01;101877.19;;;13.02;79.34
53647;BME280;39550;52.230;5.194;2022-10-31T06:09:26;101876.28;;;13.01;79.25
53647;BME280;39550;52.230;5.194;2022-10-31T06:11:52;101882.38;;;13.03;79.26
53647;BME280;39550;52.230;5.194;2022-10-31T06:14:17;101889.31;;;13.06;79.33
53647;BME280;39550;52.230;5.194;2022-10-31T06:16:42;101821.47;;;12.66;79.57
53647;BME280;39550;52.230;5.194;2022-10-31T06:19:08;101831.84;;;12.69;79.39
53647;BME280;39550;52.230;5.194;2022-10-31T06:21:45;101860.50;;;12.81;79.29
53647;BME280;39550;52.230;5.194;2022-10-31T06:24:10;101769.19;;;12.29;79.05
53647;BME280;39550;52.230;5.194;2022-10-31T06:26:36;101871.78;;;12.86;78.86
53647;BME280;39550;52.230;5.194;2022-10-31T06:29:03;101889.19;;;13.00;78.92
53647;BME280;39550;52.230;5.194;2022-10-31T06:31:29;101890.91;;;12.98;79.16
53647;BME280;39550;52.230;5.194;2022-10-31T06:33:54;101850.88;;;12.72;78.96
53647;BME280;39550;52.230;5.194;2022-10-31T06:36:24;101866.50;;;12.80;78.84
53647;BME280;39550;52.230;5.194;2022-10-31T06:39:00;101835.97;;;12.56;79.31
53647;BME280;39550;52.230;5.194;2022-10-31T06:41:41;101902.94;;;12.95;78.90
53647;BME280;39550;52.230;5.194;2022-10-31T06:49:52;101870.59;;;12.66;79.13
53647;BME280;39550;52.230;5.194;2022-10-31T06:55:44;101863.63;;;12.62;78.33
53647;BME280;39550;52.230;5.194;2022-10-31T06:58:37;101825.47;;;12.45;78.96
53647;BME280;39550;52.230;5.194;2022-10-31T07:01:18;101867.94;;;12.63;78.67
53647;BME280;39550;52.230;5.194;2022-10-31T07:07:04;101853.94;;;12.48;79.25
53647;BME280;39550;52.230;5.194;2022-10-31T07:09:47;101827.88;;;12.36;78.46
53647;BME280;39550;52.230;5.194;2022-10-31T07:28:09;101926.81;;;12.79;78.39
53647;BME280;39550;52.230;5.194;2022-10-31T07:30:35;101927.72;;;12.80;78.45
53647;BME280;39550;52.230;5.194;2022-10-31T07:33:00;101924.25;;;12.81;78.41
53647;BME280;39550;52.230;5.194;2022-10-31T07:35:28;101932.91;;;12.80;78.42
53647;BME280;39550;52.230;5.194;2022-10-31T07:37:54;101936.34;;;12.80;78.57
53647;BME280;39550;52.230;5.194;2022-10-31T07:40:20;101925.13;;;12.78;78.57
53647;BME280;39550;52.230;5.194;2022-10-31T07:42:48;101922.53;;;12.78;78.47
53647;BME280;39550;52.230;5.194;2022-10-31T07:45:16;101926.81;;;12.79;78.36
53647;BME280;39550;52.230;5.194;2022-10-31T07:50:10;101932.91;;;12.80;78.49
53647;BME280;39550;52.230;5.194;2022-10-31T07:52:36;101926.81;;;12.79;78.66
53647;BME280;39550;52.230;5.194;2022-10-31T07:55:02;101927.66;;;12.76;79.22
53647;BME280;39550;52.230;5.194;2022-10-31T07:57:28;101928.50;;;12.74;78.83
53647;BME280;39550;52.230;5.194;2022-10-31T07:59:53;101932.78;;;12.73;78.87
53647;BME280;39550;52.230;5.194;2022-10-31T08:02:18;101930.16;;;12.72;78.26
53647;BME280;39550;52.230;5.194;2022-10-31T08:04:44;101936.22;;;12.72;77.56
53647;BME280;39550;52.230;5.194;2022-10-31T08:07:09;101938.81;;;12.72;77.75
53647;BME280;39550;52.230;5.194;2022-10-31T08:09:34;101933.59;;;12.71;78.55
53647;BME280;39550;52.230;5.194;2022-10-31T08:12:00;101938.75;;;12.71;77.81
53647;BME280;39550;52.230;5.194;2022-10-31T08:14:26;101943.94;;;12.71;78.33
53647;BME280;39550;52.230;5.194;2022-10-31T08:16:52;101942.25;;;12.71;78.66
53647;BME280;39550;52.230;5.194;2022-10-31T08:19:18;101940.50;;;12.72;78.87
53647;BME280;39550;52.230;5.194;2022-10-31T08:21:43;101941.41;;;12.72;77.96
53647;BME280;39550;52.230;5.194;2022-10-31T08:24:08;101937.09;;;12.73;78.66
53647;BME280;39550;52.230;5.194;2022-10-31T08:26:34;101943.94;;;12.71;78.53
53647;BME280;39550;52.230;5.194;2022-10-31T08:29:00;101943.94;;;12.71;78.68
53647;BME280;39550;52.230;5.194;2022-10-31T08:31:26;101937.03;;;12.70;78.81
53647;BME280;39550;52.230;5.194;2022-10-31T08:33:52;101929.28;;;12.70;78.68
53647;BME280;39550;52.230;5.194;2022-10-31T08:36:18;101926.69;;;12.70;79.39
53647;BME280;39550;52.230;5.194;2022-10-31T08:38:44;101924.94;;;12.69;78.90
53647;BME280;39550;52.230;5.194;2022-10-31T08:41:09;101926.72;;;12.71;79.21
53647;BME280;39550;52.230;5.194;2022-10-31T08:43:34;101922.41;;;12.72;78.72
53647;BME280;39550;52.230;5.194;2022-10-31T08:45:59;101923.31;;;12.74;78.48
53647;BME280;39550;52.230;5.194;2022-10-31T08:48:25;101919.84;;;12.73;78.59
53647;BME280;39550;52.230;5.194;2022-10-31T08:50:50;101918.97;;;12.71;78.89
53647;BME280;39550;52.230;5.194;2022-10-31T08:53:17;101916.41;;;12.74;78.85
53647;BME280;39550;52.230;5.194;2022-10-31T08:55:44;101909.53;;;12.75;78.96
53647;BME280;39550;52.230;5.194;2022-10-31T08:58:20;101901.75;;;12.75;78.76
53647;BME280;39550;52.230;5.194;2022-10-31T09:00:49;101910.41;;;12.75;79.16
53647;BME280;39550;52.230;5.194;2022-10-31T09:03:17;101904.41;;;12.78;79.28
53647;BME280;39550;52.230;5.194;2022-10-31T09:05:43;101894.88;;;12.75;78.88
53647;BME280;39550;52.230;5.194;2022-10-31T09:08:09;101887.16;;;12.78;79.02
53647;BME280;39550;52.230;5.194;2022-10-31T09:10:36;101894.94;;;12.80;79.25
53647;BME280;39550;52.230;5.194;2022-10-31T09:13:04;101897.56;;;12.83;79.18
53647;BME280;39550;52.230;5.194;2022-10-31T09:15:31;101889.81;;;12.83;79.00
53647;BME280;39550;52.230;5.194;2022-10-31T09:17:56;101889.81;;;12.83;79.42
53647;BME280;39550;52.230;5.194;2022-10-31T09:20:22;101904.50;;;12.84;79.52
53647;BME280;39550;52.230;5.194;2022-10-31T09:22:47;101889.81;;;12.83;79.29
53647;BME280;39550;52.230;5.194;2022-10-31T09:25:13;101883.78;;;12.83;79.60
53647;BME280;39550;52.230;5.194;2022-10-31T09:27:38;101878.59;;;12.81;79.19
53647;BME280;39550;52.230;5.194;2022-10-31T09:30:04;101879.44;;;12.80;79.85
53647;BME280;39550;52.230;5.194;2022-10-31T09:32:30;101871.63;;;12.77;79.18
53647;BME280;39550;52.230;5.194;2022-10-31T09:34:55;101869.91;;;12.79;79.84
53647;BME280;39550;52.230;5.194;2022-10-31T09:37:20;101881.19;;;12.81;80.07
53647;BME280;39550;52.230;5.194;2022-10-31T09:39:46;101871.66;;;12.80;79.75
53647;BME280;39550;52.230;5.194;2022-10-31T09:47:38;101857.09;;;12.84;79.56
53647;BME280;39550;52.230;5.194;2022-10-31T09:50:21;101861.44;;;12.86;79.54
53647;BME280;39550;52.230;5.194;2022-10-31T09:53:01;101861.47;;;12.89;79.73
53647;BME280;39550;52.230;5.194;2022-10-31T09:55:47;101866.66;;;12.89;79.43
53647;BME280;39550;52.230;5.194;2022-10-31T09:58:38;101865.81;;;12.92;79.57
53647;BME280;39550;52.230;5.194;2022-10-31T10:01:06;101861.50;;;12.92;79.55
53647;BME280;39550;52.230;5.194;2022-10-31T10:03:40;101851.16;;;12.92;80.04
53647;BME280;39550;52.230;5.194;2022-10-31T10:06:11;101847.69;;;12.90;79.67
53647;BME280;39550;52.230;5.194;2022-10-31T10:08:38;101840.78;;;12.89;80.04
53647;BME280;39550;52.230;5.194;2022-10-31T10:14:06;101836.44;;;12.88;80.47
53647;BME280;39550;52.230;5.194;2022-10-31T10:16:57;101840.78;;;12.89;80.46
53647;BME280;39550;52.230;5.194;2022-10-31T10:22:43;101838.16;;;12.88;80.17
53647;BME280;39550;52.230;5.194;2022-10-31T10:25:25;101837.28;;;12.87;80.62
53647;BME280;39550;52.230;5.194;2022-10-31T10:28:21;101828.69;;;12.88;80.96
53647;BME280;39550;52.230;5.194;2022-10-31T10:31:13;101828.72;;;12.91;80.76
53647;BME280;39550;52.230;5.194;2022-10-31T10:33:50;101826.94;;;12.87;80.66
53647;BME280;39550;52.230;5.194;2022-10-31T10:39:40;101823.56;;;12.93;79.98
53647;BME280;39550;52.230;5.194;2022-10-31T10:42:11;101816.72;;;12.97;80.92
53647;BME280;39550;52.230;5.194;2022-10-31T10:44:55;101820.19;;;12.99;80.84
53647;BME280;39550;52.230;5.194;2022-10-31T10:47:45;101813.28;;;12.98;80.40
53647;BME280;39550;52.230;5.194;2022-10-31T10:50:19;101804.72;;;13.02;80.64
53647;BME280;39550;52.230;5.194;2022-10-31T10:55:42;101795.22;;;13.02;79.85
53647;BME280;39550;52.230;5.194;2022-10-31T10:58:09;101780.56;;;13.03;81.00
53647;BME280;39550;52.230;5.194;2022-10-31T11:03:06;101768.53;;;13.05;79.70
53647;BME280;39550;52.230;5.194;2022-10-31T11:05:41;101754.69;;;13.03;80.55
53647;BME280;39550;52.230;5.194;2022-10-31T11:08:10;101751.25;;;13.04;81.25
53647;BME280;39550;52.230;5.194;2022-10-31T11:10:36;101751.25;;;13.02;80.81
53647;BME280;39550;52.230;5.194;2022-10-31T11:15:34;101740.06;;;13.03;80.94
53647;BME280;39550;52.230;5.194;2022-10-31T11:18:01;101732.28;;;13.02;80.19
53647;BME280;39550;52.230;5.194;2022-10-31T11:20:30;101721.97;;;13.05;81.04
53647;BME280;39550;52.230;5.194;2022-10-31T11:23:20;101710.75;;;13.04;81.56
53647;BME280;39550;52.230;5.194;2022-10-31T11:26:00;101711.59;;;13.05;81.08
53647;BME280;39550;52.230;5.194;2022-10-31T11:28:27;101708.19;;;13.06;81.57
53647;BME280;39550;52.230;5.194;2022-10-31T11:30:56;101717.66;;;13.07;80.66
53647;BME280;39550;52.230;5.194;2022-10-31T11:33:59;101723.72;;;13.09;81.06
53647;BME280;39550;52.230;5.194;2022-10-31T11:36:29;101725.41;;;13.07;81.22
53647;BME280;39550;52.230;5.194;2022-10-31T11:38:55;101721.13;;;13.09;81.61
53647;BME280;39550;52.230;5.194;2022-10-31T11:43:55;101716.84;;;13.11;81.39
53647;BME280;39550;52.230;5.194;2022-10-31T11:46:35;101709.97;;;13.13;80.77
53647;BME280;39550;52.230;5.194;2022-10-31T11:49:03;101717.75;;;13.13;81.57
53647;BME280;39550;52.230;5.194;2022-10-31T11:51:32;101712.53;;;13.10;80.58
53647;BME280;39550;52.230;5.194;2022-10-31T11:53:59;101701.31;;;13.09;81.61
53647;BME280;39550;52.230;5.194;2022-10-31T11:56:27;101698.69;;;13.08;80.32
53647;BME280;39550;52.230;5.194;2022-10-31T11:59:04;101681.44;;;13.07;81.02
53647;BME280;39550;52.230;5.194;2022-10-31T12:01:32;101680.59;;;13.08;80.70
53647;BME280;39550;52.230;5.194;2022-10-31T12:04:09;101659.88;;;13.08;80.59
53647;BME280;39550;52.230;5.194;2022-10-31T12:06:37;101644.34;;;13.08;80.82
53647;BME280;39550;52.230;5.194;2022-10-31T12:12:10;101634.91;;;13.08;80.37
53647;BME280;39550;52.230;5.194;2022-10-31T12:14:54;101635.75;;;13.10;81.49
53647;BME280;39550;52.230;5.194;2022-10-31T12:17:25;101628.84;;;13.11;80.90
53647;BME280;39550;52.230;5.194;2022-10-31T12:22:31;101630.63;;;13.15;80.81
53647;BME280;39550;52.230;5.194;2022-10-31T12:27:59;101632.38;;;13.16;81.22
53647;BME280;39550;52.230;5.194;2022-10-31T12:30:46;101615.06;;;13.10;80.33
53647;BME280;39550;52.230;5.194;2022-10-31T12:33:24;101613.31;;;13.11;80.78
53647;BME280;39550;52.230;5.194;2022-10-31T12:35:59;101590.03;;;13.11;81.07
53647;BME280;39550;52.230;5.194;2022-10-31T12:41:51;101592.63;;;13.11;81.67
53647;BME280;39550;52.230;5.194;2022-10-31T12:47:58;101568.47;;;13.09;81.28
53647;BME280;39550;52.230;5.194;2022-10-31T12:50:57;101568.47;;;13.09;81.43
53647;BME280;39550;52.230;5.194;2022-10-31T12:56:19;101561.63;;;13.14;81.50
53647;BME280;39550;52.230;5.194;2022-10-31T12:59:10;101553.88;;;13.14;81.41
53647;BME280;39550;52.230;5.194;2022-10-31T13:02:02;101550.44;;;13.17;80.45
53647;BME280;39550;52.230;5.194;2022-10-31T13:04:46;101537.47;;;13.15;81.54
53647;BME280;39550;52.230;5.194;2022-10-31T13:07:53;101532.28;;;13.15;80.99
53647;BME280;39550;52.230;5.194;2022-10-31T13:10:30;101521.94;;;13.15;81.56
53647;BME280;39550;52.230;5.194;2022-10-31T13:13:06;101533.16;;;13.16;81.54
53647;BME280;39550;52.230;5.194;2022-10-31T13:15:44;101521.94;;;13.15;81.04
53647;BME280;39550;52.230;5.194;2022-10-31T13:18:21;101511.59;;;13.15;81.67
53647;BME280;39550;52.230;5.194;2022-10-31T13:20:48;101502.94;;;13.13;81.25
53647;BME280;39550;52.230;5.194;2022-10-31T13:23:29;101504.69;;;13.14;82.19
53647;BME280;39550;52.230;5.194;2022-10-31T13:25:56;101488.25;;;13.10;82.15
53647;BME280;39550;52.230;5.194;2022-10-31T13:28:25;101496.06;;;13.15;81.82
53647;BME280;39550;52.230;5.194;2022-10-31T13:30:54;101494.34;;;13.14;81.84
53647;BME280;39550;52.230;5.194;2022-10-31T13:33:29;101485.69;;;13.15;82.50
53647;BME280;39550;52.230;5.194;2022-10-31T13:36:29;101469.31;;;13.15;82.83
53647;BME280;39550;52.230;5.194;2022-10-31T13:38:58;101475.34;;;13.15;82.20
53647;BME280;39550;52.230;5.194;2022-10-31T13:44:35;101472.75;;;13.14;83.05
53647;BME280;39550;52.230;5.194;2022-10-31T13:47:18;101460.66;;;13.11;82.61
53647;BME280;39550;52.230;5.194;2022-10-31T13:49:45;101458.06;;;13.11;83.67
53647;BME280;39550;52.230;5.194;2022-10-31T13:54:46;101447.72;;;13.11;83.00
53647;BME280;39550;52.230;5.194;2022-10-31T13:57:19;101426.16;;;13.10;82.59
53647;BME280;39550;52.230;5.194;2022-10-31T13:59:51;101425.31;;;13.10;83.69
53647;BME280;39550;52.230;5.194;2022-10-31T14:02:24;101426.16;;;13.10;83.54
53647;BME280;39550;52.230;5.194;2022-10-31T14:04:55;101423.56;;;13.09;82.71
53647;BME280;39550;52.230;5.194;2022-10-31T14:07:23;101415.81;;;13.07;82.93
53647;BME280;39550;52.230;5.194;2022-10-31T14:10:04;101414.06;;;13.09;83.11
53647;BME280;39550;52.230;5.194;2022-10-31T14:12:41;101410.63;;;13.10;83.21
53647;BME280;39550;52.230;5.194;2022-10-31T14:15:21;101404.59;;;13.10;82.91
53647;BME280;39550;52.230;5.194;2022-10-31T14:22:40;101393.44;;;13.14;82.60
53647;BME280;39550;52.230;5.194;2022-10-31T14:25:32;101385.66;;;13.14;81.87
53647;BME280;39550;52.230;5.194;2022-10-31T14:28:00;101378.75;;;13.13;82.24
53647;BME280;39550;52.230;5.194;2022-10-31T14:30:28;101382.19;;;13.12;81.68
53647;BME280;39550;52.230;5.194;2022-10-31T14:32:59;101370.97;;;13.10;82.75
53647;BME280;39550;52.230;5.194;2022-10-31T14:41:29;101362.31;;;13.06;83.54
53647;BME280;39550;52.230;5.194;2022-10-31T14:47:25;101358.88;;;13.10;82.94
53647;BME280;39550;52.230;5.194;2022-10-31T14:52:47;101342.50;;;13.10;83.10
53647;BME280;39550;52.230;5.194;2022-10-31T14:55:14;101339.03;;;13.09;84.42
53647;BME280;39550;52.230;5.194;2022-10-31T14:57:48;101333.00;;;13.09;83.11
53647;BME280;39550;52.230;5.194;2022-10-31T15:00:18;101326.09;;;13.09;83.48
53647;BME280;39550;52.230;5.194;2022-10-31T15:05:28;101325.25;;;13.09;83.59